Dallas, PA (18612)

3:32 AM EST on February 25, 2017 (GMT -0500)
Captains Quarters Shavertown | | Change Station

Elev 1145 ft 41.33 °N, 75.94 °W | Updated 7 seconds ago

Overcast
Overcast
59.9 °F
Feels Like 59.9 °F
N
3.0
Wind Variable Wind from South

Today
High -- | Low -- °F
--% Chance of Precip.
Yesterday
High -- | Low -- °F
Precip. -- in
Pressure 29.68 in
Visibility 9.0 miles
Clouds Overcast 5500 ft
Dew Point 56 °F
Humidity 90%
Rainfall 0.00 in
Snow Depth Not available.
6:44 AM 5:50 PM
Waning Crescent, 2% visible
METAR KAVP 250754Z 17014G22KT 9SM OVC055 17/14 A2970 RMK AO2 SLP048 T01670139
Pressure 29.68 in
Visibility 9.0 miles
Clouds Overcast 5500 ft
Dew Point 56 °F
Humidity 90%
Rainfall 0.00 in
Snow Depth Not available.
6:44 AM 5:50 PM
Waning Crescent, 2% visible
METAR KAVP 250754Z 17014G22KT 9SM OVC055 17/14 A2970 RMK AO2 SLP048 T01670139

Get Your Daily Forecast Email!

Thanks for signing up!

Be on the lookout for a verification email in your inbox.

You'll start receiving the daily forecast at 8 AM.

×

10-Day Weather Forecast

Almanac

Astronomy

Feb. 25, 2017 Rise Set
Actual Time
Civil Twilight
Nautical Twilight
Astronomical Twilight
Moon
Length of Visible Light
Length of Day
Tomorrow will be .
, % of the Moon is Illuminated

Today's Extremes

State Highs State Lows

Community

WunderPhotos

Upload Photos

1,962,540 photos uploaded!

WunderBlog® & News

Nearby

Air Quality

  Air Quality AQ Index Pollutant
Not available.

Snow Depth

Station Depth Elevation

Earthquake Activity

City Distance Mag. Time & Date
Minimum magnitude displayed is 2.5.

Coastal Water Temperatures

Place Temperature

Stations

Nearby Weather Stations

Station Location Temp. Windchill Dew Point Humidity Wind Precip. Elev Updated Type
                   

Watches & Warnings

There are currently no watches in effect.